createdAt,value
2022-08-31T00:00:10.429Z,15.10
2022-08-31T00:02:57.096Z,15.00
2022-08-31T00:05:24.280Z,15.10
2022-08-31T00:07:51.934Z,15.00
2022-08-31T00:10:31.922Z,15.00
2022-08-31T00:13:00.952Z,15.00
2022-08-31T00:15:29.944Z,14.90
2022-08-31T00:17:56.803Z,14.80
2022-08-31T00:20:33.735Z,14.80
2022-08-31T00:23:06.068Z,14.80
2022-08-31T00:25:34.332Z,14.70
2022-08-31T00:28:01.665Z,14.60
2022-08-31T00:30:29.282Z,14.60
2022-08-31T00:32:58.139Z,14.60
2022-08-31T00:35:27.062Z,14.60
2022-08-31T00:37:54.057Z,14.50
2022-08-31T00:40:21.406Z,14.60
2022-08-31T00:42:48.260Z,14.50
2022-08-31T00:45:15.478Z,14.50
2022-08-31T00:47:42.367Z,14.50
2022-08-31T00:50:14.461Z,14.50
2022-08-31T00:52:46.401Z,14.50
2022-08-31T00:55:20.851Z,14.50
2022-08-31T00:57:51.397Z,14.60
2022-08-31T01:00:22.091Z,14.50
2022-08-31T01:02:49.183Z,14.50
2022-08-31T01:05:17.234Z,14.50
2022-08-31T01:07:47.783Z,14.50
2022-08-31T01:10:16.972Z,14.50
2022-08-31T01:12:45.849Z,14.40
2022-08-31T01:15:14.590Z,14.40
2022-08-31T01:17:43.128Z,14.40
2022-08-31T01:20:15.024Z,14.50
2022-08-31T01:23:08.195Z,14.40
2022-08-31T01:25:37.469Z,14.40
2022-08-31T01:28:07.221Z,14.40
2022-08-31T01:30:34.801Z,14.40
2022-08-31T01:33:01.747Z,14.40
2022-08-31T01:35:29.669Z,14.40
2022-08-31T01:37:57.581Z,14.50
2022-08-31T01:40:52.628Z,14.50
2022-08-31T01:43:20.166Z,14.50
2022-08-31T01:45:47.105Z,14.50
2022-08-31T01:48:14.092Z,14.50
2022-08-31T01:50:40.902Z,14.60
2022-08-31T01:53:07.873Z,14.60
2022-08-31T01:55:34.880Z,14.60
2022-08-31T01:58:02.092Z,14.60
2022-08-31T02:00:29.647Z,14.60
2022-08-31T02:03:00.422Z,14.60
2022-08-31T02:05:28.278Z,14.60
2022-08-31T02:07:56.197Z,14.60
2022-08-31T02:10:24.020Z,14.70
2022-08-31T02:12:50.817Z,14.70
2022-08-31T02:15:17.770Z,14.60
2022-08-31T02:17:44.667Z,14.60
2022-08-31T02:20:13.479Z,14.60
2022-08-31T02:22:40.692Z,14.60
2022-08-31T02:25:09.327Z,14.60
2022-08-31T02:27:37.328Z,14.60
2022-08-31T02:30:12.171Z,14.60
2022-08-31T02:32:38.987Z,14.60
2022-08-31T02:35:06.473Z,14.40
2022-08-31T02:37:33.288Z,14.40
2022-08-31T02:40:02.413Z,14.50
2022-08-31T02:42:50.839Z,14.50
2022-08-31T02:45:18.448Z,14.50
2022-08-31T02:47:45.277Z,14.50
2022-08-31T02:50:12.073Z,14.50
2022-08-31T02:52:38.842Z,14.40
2022-08-31T02:55:06.032Z,14.40
2022-08-31T02:57:32.835Z,14.40
2022-08-31T02:59:59.624Z,14.40
2022-08-31T03:02:31.912Z,14.50
2022-08-31T03:05:01.574Z,14.50
2022-08-31T03:07:28.378Z,14.50
2022-08-31T03:09:55.383Z,14.50
2022-08-31T03:12:22.167Z,14.50
2022-08-31T03:14:48.943Z,14.60
2022-08-31T03:17:15.720Z,14.70
2022-08-31T03:19:42.549Z,14.70
2022-08-31T03:22:09.384Z,14.80
2022-08-31T03:24:36.333Z,14.80
2022-08-31T03:27:03.161Z,14.90
2022-08-31T03:29:29.997Z,14.90
2022-08-31T03:31:56.833Z,14.90
2022-08-31T03:34:23.699Z,14.90
2022-08-31T03:36:50.444Z,14.90
2022-08-31T03:39:17.265Z,14.90
2022-08-31T03:41:44.233Z,14.90
2022-08-31T03:44:10.985Z,14.90
2022-08-31T03:46:37.821Z,14.90
2022-08-31T03:49:05.401Z,14.90
2022-08-31T03:51:32.165Z,14.80
2022-08-31T03:53:58.933Z,14.80
2022-08-31T03:56:25.780Z,14.80
2022-08-31T03:58:52.555Z,14.80
2022-08-31T04:01:19.461Z,14.80
2022-08-31T04:03:46.228Z,14.80
2022-08-31T04:06:13.472Z,14.70
2022-08-31T04:08:41.436Z,14.70
2022-08-31T04:11:15.584Z,14.70
2022-08-31T04:13:42.439Z,14.70
2022-08-31T04:16:12.210Z,14.70
2022-08-31T04:18:43.688Z,14.70
2022-08-31T04:21:25.421Z,14.70
2022-08-31T04:23:53.829Z,14.70
2022-08-31T04:26:30.378Z,14.70
2022-08-31T04:29:00.537Z,14.80
2022-08-31T04:31:28.673Z,14.80
2022-08-31T04:33:56.908Z,14.80
2022-08-31T04:36:26.109Z,14.80
2022-08-31T04:38:56.820Z,14.80
2022-08-31T04:41:26.315Z,14.80
2022-08-31T04:43:55.172Z,14.80
2022-08-31T04:46:22.558Z,14.70
2022-08-31T04:48:49.648Z,14.70
2022-08-31T04:51:22.440Z,14.70
2022-08-31T04:53:50.291Z,14.70
2022-08-31T04:56:22.776Z,14.80
2022-08-31T04:58:59.387Z,14.80
2022-08-31T05:01:28.128Z,14.80
2022-08-31T05:04:03.804Z,14.80
2022-08-31T05:06:33.492Z,14.90
2022-08-31T05:09:04.274Z,14.90
2022-08-31T05:11:31.368Z,14.90
2022-08-31T05:13:59.437Z,14.90
2022-08-31T05:16:26.966Z,15.00
2022-08-31T05:18:53.893Z,15.00
2022-08-31T05:21:29.747Z,15.00
2022-08-31T05:24:09.015Z,15.00
2022-08-31T05:26:48.279Z,15.00
2022-08-31T05:29:16.849Z,15.10
2022-08-31T05:31:47.164Z,15.10
2022-08-31T05:34:17.933Z,15.10
2022-08-31T05:36:48.937Z,15.20
2022-08-31T05:39:16.036Z,15.20
2022-08-31T05:41:46.196Z,15.20
2022-08-31T05:44:13.967Z,15.20
2022-08-31T05:46:41.027Z,15.30
2022-08-31T05:49:09.411Z,15.30
2022-08-31T05:51:38.486Z,15.30
2022-08-31T05:54:06.353Z,15.30
2022-08-31T05:56:34.513Z,15.40
2022-08-31T05:59:01.701Z,15.40
2022-08-31T06:01:32.030Z,15.50
2022-08-31T06:04:00.140Z,15.60
2022-08-31T06:06:27.683Z,15.60
2022-08-31T06:08:54.925Z,15.70
2022-08-31T06:11:24.608Z,15.70
2022-08-31T06:13:53.407Z,15.70
2022-08-31T06:16:21.095Z,15.80
2022-08-31T06:18:51.186Z,15.80
2022-08-31T06:21:24.859Z,15.90
2022-08-31T06:23:54.748Z,15.90
2022-08-31T06:26:23.089Z,15.90
2022-08-31T06:28:52.574Z,15.90
2022-08-31T06:31:27.802Z,16.00
2022-08-31T06:33:58.459Z,16.00
2022-08-31T06:36:28.151Z,16.00
2022-08-31T06:38:56.478Z,16.00
2022-08-31T06:41:27.134Z,16.00
2022-08-31T06:43:54.172Z,15.90
2022-08-31T06:46:22.509Z,15.90
2022-08-31T06:48:51.638Z,15.90
2022-08-31T06:51:18.442Z,15.90
2022-08-31T06:53:45.220Z,16.00
2022-08-31T06:56:20.847Z,16.00
2022-08-31T06:58:53.892Z,16.10
2022-08-31T07:01:36.012Z,16.10
2022-08-31T07:04:07.730Z,16.10
2022-08-31T07:06:42.876Z,16.20
2022-08-31T07:09:15.776Z,16.30
2022-08-31T07:11:45.234Z,16.30
2022-08-31T07:14:15.010Z,16.40
2022-08-31T07:16:43.348Z,16.40
2022-08-31T07:19:11.148Z,16.40
2022-08-31T07:21:42.944Z,16.30
2022-08-31T07:24:10.936Z,16.40
2022-08-31T07:26:42.463Z,16.40
2022-08-31T07:29:10.215Z,16.50
2022-08-31T07:31:46.469Z,16.50
2022-08-31T07:34:25.824Z,16.40
2022-08-31T07:37:15.946Z,16.50
2022-08-31T07:40:06.396Z,16.40
2022-08-31T07:42:43.380Z,16.40
2022-08-31T07:45:23.040Z,16.40
2022-08-31T07:47:51.833Z,16.40
2022-08-31T07:50:20.003Z,16.40
2022-08-31T07:52:51.734Z,16.40
2022-08-31T07:55:20.359Z,16.40
2022-08-31T07:57:47.250Z,16.30
2022-08-31T08:00:21.344Z,16.30
2022-08-31T08:02:52.903Z,16.40
2022-08-31T08:05:26.799Z,16.30
2022-08-31T08:07:56.207Z,16.30
2022-08-31T08:10:27.626Z,16.30
2022-08-31T08:13:05.236Z,16.40
2022-08-31T08:15:35.485Z,16.40
2022-08-31T08:18:06.391Z,16.40
2022-08-31T08:20:35.326Z,16.40
2022-08-31T08:23:13.591Z,16.40
2022-08-31T08:25:43.130Z,16.40
2022-08-31T08:28:36.059Z,16.50
2022-08-31T08:31:05.586Z,16.50
2022-08-31T08:33:34.881Z,16.50
2022-08-31T08:36:04.754Z,16.50
2022-08-31T08:38:32.005Z,16.50
2022-08-31T08:41:00.670Z,16.50
2022-08-31T08:43:37.405Z,16.50
2022-08-31T08:46:31.131Z,16.50
2022-08-31T08:48:59.038Z,16.50
2022-08-31T08:51:38.382Z,16.40
2022-08-31T08:54:15.953Z,16.50
2022-08-31T08:56:49.021Z,16.40
2022-08-31T08:59:19.615Z,16.40
2022-08-31T09:01:49.178Z,16.40
2022-08-31T09:04:44.913Z,16.40
2022-08-31T09:07:30.875Z,16.40
2022-08-31T09:10:14.972Z,16.40
2022-08-31T09:13:07.032Z,16.40
2022-08-31T09:16:07.038Z,16.40
2022-08-31T09:18:39.920Z,16.40
2022-08-31T09:21:20.804Z,16.40
2022-08-31T09:24:01.576Z,16.30
2022-08-31T09:26:33.961Z,16.40
2022-08-31T09:29:03.792Z,16.40
2022-08-31T09:31:34.433Z,16.50
2022-08-31T09:34:02.225Z,16.50
2022-08-31T09:36:40.967Z,16.60
2022-08-31T09:39:38.849Z,16.50
2022-08-31T09:42:33.888Z,16.60
2022-08-31T09:45:25.536Z,16.70
2022-08-31T09:47:52.875Z,16.60
2022-08-31T09:50:47.388Z,16.70
2022-08-31T09:53:42.680Z,16.80
2022-08-31T09:56:16.833Z,16.80
2022-08-31T09:59:02.835Z,16.80
2022-08-31T10:01:44.125Z,16.90
2022-08-31T10:04:15.999Z,17.00
2022-08-31T10:06:55.415Z,17.00
2022-08-31T10:09:37.200Z,17.10
2022-08-31T10:12:09.644Z,17.20
2022-08-31T10:14:50.665Z,17.20
2022-08-31T10:17:53.034Z,17.20
2022-08-31T10:20:36.009Z,17.30
2022-08-31T10:23:14.459Z,17.40
2022-08-31T10:25:46.659Z,17.50
2022-08-31T10:28:17.571Z,17.80
2022-08-31T10:30:58.127Z,17.80
2022-08-31T10:34:06.088Z,17.80
2022-08-31T10:36:37.760Z,17.90
2022-08-31T10:39:23.630Z,18.00
2022-08-31T10:41:51.192Z,17.90
2022-08-31T10:44:40.467Z,18.00
2022-08-31T10:47:22.904Z,18.20
2022-08-31T10:50:03.404Z,18.20
2022-08-31T10:52:34.527Z,18.20
2022-08-31T10:55:29.132Z,18.30
2022-08-31T10:57:56.383Z,18.40
2022-08-31T11:00:45.947Z,18.50
2022-08-31T11:03:45.712Z,18.60
2022-08-31T11:06:12.774Z,18.80
2022-08-31T11:08:57.534Z,18.80
2022-08-31T11:11:44.907Z,19.00
2022-08-31T11:14:27.049Z,19.20
2022-08-31T11:17:13.057Z,19.40
2022-08-31T11:19:57.445Z,19.70
2022-08-31T11:22:51.174Z,20.00
2022-08-31T11:25:55.418Z,20.30
2022-08-31T11:28:46.054Z,20.50
2022-08-31T11:31:23.945Z,20.50
2022-08-31T11:34:15.910Z,20.80
2022-08-31T11:36:54.823Z,20.90
2022-08-31T11:39:31.102Z,21.00
2022-08-31T11:41:59.199Z,21.10
2022-08-31T11:44:36.998Z,21.20
2022-08-31T11:47:34.611Z,21.30
2022-08-31T11:50:12.285Z,21.40
2022-08-31T11:52:48.328Z,21.50
2022-08-31T11:55:18.497Z,21.40
2022-08-31T11:58:07.169Z,21.30
2022-08-31T12:00:46.389Z,20.90
2022-08-31T12:03:56.451Z,21.00
2022-08-31T12:06:29.433Z,21.20
2022-08-31T12:09:20.976Z,21.30
2022-08-31T12:12:29.372Z,21.40
2022-08-31T12:15:07.697Z,21.40
2022-08-31T12:17:56.196Z,21.30
2022-08-31T12:21:16.708Z,21.50
2022-08-31T12:23:54.268Z,21.50
2022-08-31T12:26:41.806Z,21.70
2022-08-31T12:29:20.707Z,21.70
2022-08-31T12:32:11.307Z,21.80
2022-08-31T12:34:44.480Z,21.90
2022-08-31T12:37:29.424Z,22.20
2022-08-31T12:40:27.275Z,22.40
2022-08-31T12:42:58.993Z,22.40
2022-08-31T12:45:47.494Z,22.50
2022-08-31T12:48:38.605Z,22.70
2022-08-31T12:51:42.536Z,22.50
2022-08-31T12:54:30.714Z,22.60
2022-08-31T12:57:05.948Z,23.30
2022-08-31T13:00:01.042Z,24.40
2022-08-31T13:02:32.852Z,24.00
2022-08-31T13:05:00.542Z,23.60
2022-08-31T13:07:32.556Z,23.60
2022-08-31T13:10:24.886Z,23.60
2022-08-31T13:12:54.414Z,24.20
2022-08-31T13:15:27.773Z,23.80
2022-08-31T13:17:55.101Z,23.30
2022-08-31T13:20:28.176Z,23.20
2022-08-31T13:23:02.429Z,24.20
2022-08-31T13:25:35.897Z,24.80
2022-08-31T13:28:26.865Z,24.40
2022-08-31T13:31:06.398Z,24.70
2022-08-31T13:33:36.576Z,24.70
2022-08-31T13:36:06.579Z,24.10
2022-08-31T13:38:42.170Z,24.70
2022-08-31T13:41:28.289Z,25.20
2022-08-31T13:44:02.675Z,25.00
2022-08-31T13:46:42.997Z,24.60
2022-08-31T13:49:34.256Z,24.30
2022-08-31T13:52:07.024Z,25.00
2022-08-31T13:54:36.168Z,25.30
2022-08-31T13:57:22.750Z,25.10
2022-08-31T13:59:49.671Z,25.60
2022-08-31T14:02:16.606Z,25.20
2022-08-31T14:04:43.901Z,25.10
2022-08-31T14:07:23.774Z,24.50
2022-08-31T14:10:00.205Z,24.80
2022-08-31T14:12:35.242Z,25.50
2022-08-31T14:15:38.985Z,25.50
2022-08-31T14:18:26.157Z,25.00
2022-08-31T14:21:26.916Z,24.60
2022-08-31T14:24:09.051Z,25.10
2022-08-31T14:26:41.402Z,25.00
2022-08-31T14:29:14.029Z,25.60
2022-08-31T14:31:54.931Z,25.20
2022-08-31T14:34:28.123Z,24.90
2022-08-31T14:37:19.702Z,25.50
2022-08-31T14:39:53.769Z,25.00
2022-08-31T14:42:31.567Z,24.40
2022-08-31T14:45:02.496Z,24.00
2022-08-31T14:47:37.281Z,23.30
2022-08-31T14:50:07.861Z,23.10
2022-08-31T14:52:37.023Z,22.70
2022-08-31T14:55:08.990Z,22.60
2022-08-31T14:57:36.448Z,22.40
2022-08-31T15:00:05.874Z,22.30
2022-08-31T15:02:33.555Z,22.10
2022-08-31T15:05:04.623Z,22.00
2022-08-31T15:07:37.452Z,22.10
2022-08-31T15:10:06.767Z,22.10
2022-08-31T15:12:34.651Z,22.10
2022-08-31T15:15:01.884Z,22.10
2022-08-31T15:17:30.550Z,22.10
2022-08-31T15:19:57.397Z,22.10
2022-08-31T15:22:28.328Z,22.20
2022-08-31T15:24:55.846Z,22.40
2022-08-31T15:27:23.413Z,22.60
2022-08-31T15:29:53.805Z,22.40
2022-08-31T15:32:20.846Z,22.20
2022-08-31T15:34:58.509Z,22.00
2022-08-31T15:37:31.666Z,21.90
2022-08-31T15:40:04.393Z,21.80
2022-08-31T15:42:39.763Z,21.80
2022-08-31T15:45:08.114Z,21.60
2022-08-31T15:47:57.215Z,21.60
2022-08-31T15:50:31.530Z,21.60
2022-08-31T15:53:03.052Z,21.70
2022-08-31T15:55:32.289Z,21.80
2022-08-31T15:58:00.892Z,21.70
2022-08-31T16:00:32.658Z,21.70
2022-08-31T16:03:01.478Z,21.70
2022-08-31T16:05:38.760Z,21.70
2022-08-31T16:08:09.905Z,21.70
2022-08-31T16:10:38.448Z,21.60
2022-08-31T16:13:07.154Z,21.60
2022-08-31T16:15:34.468Z,21.40
2022-08-31T16:18:03.207Z,21.40
2022-08-31T16:20:30.052Z,21.30
2022-08-31T16:22:58.669Z,21.30
2022-08-31T16:25:47.473Z,21.30
2022-08-31T16:28:16.203Z,21.20
2022-08-31T16:30:43.885Z,21.20
2022-08-31T16:33:12.082Z,21.20
2022-08-31T16:35:39.609Z,21.10
2022-08-31T16:38:07.052Z,21.00
2022-08-31T16:40:35.378Z,21.00
2022-08-31T16:43:02.587Z,21.00
2022-08-31T16:45:29.472Z,20.90
2022-08-31T16:48:16.265Z,20.90
2022-08-31T16:50:47.581Z,20.80
2022-08-31T16:53:17.928Z,20.80
2022-08-31T16:55:47.357Z,20.70
2022-08-31T16:58:24.868Z,20.50
2022-08-31T17:01:03.457Z,20.40
2022-08-31T17:03:30.336Z,20.30
2022-08-31T17:05:57.095Z,20.10
2022-08-31T17:08:23.892Z,20.00
2022-08-31T17:10:51.293Z,19.90
2022-08-31T17:13:18.146Z,19.80
2022-08-31T17:15:44.940Z,19.80
2022-08-31T17:18:11.753Z,19.60
2022-08-31T17:20:40.118Z,19.60
2022-08-31T17:23:06.924Z,19.50
2022-08-31T17:25:35.730Z,19.30
2022-08-31T17:28:07.757Z,19.20
2022-08-31T17:30:34.671Z,19.10
2022-08-31T17:33:01.528Z,19.00
2022-08-31T17:35:29.522Z,18.90
2022-08-31T17:37:57.556Z,18.80
2022-08-31T17:40:25.581Z,18.80
2022-08-31T17:42:55.026Z,18.70
2022-08-31T17:45:25.019Z,18.70
2022-08-31T17:47:54.784Z,18.60
2022-08-31T17:50:21.890Z,18.50
2022-08-31T17:52:48.681Z,18.50
2022-08-31T17:55:15.589Z,18.40
2022-08-31T17:57:42.383Z,18.40
2022-08-31T18:00:09.990Z,18.40
2022-08-31T18:02:37.682Z,18.30
2022-08-31T18:05:09.349Z,18.30
2022-08-31T18:07:38.120Z,18.30
2022-08-31T18:10:05.270Z,18.20
2022-08-31T18:12:32.211Z,18.10
2022-08-31T18:14:59.161Z,18.10
2022-08-31T18:17:26.950Z,18.00
2022-08-31T18:19:55.306Z,17.90
2022-08-31T18:22:22.238Z,17.90
2022-08-31T18:24:49.167Z,17.80
2022-08-31T18:27:16.029Z,17.80
2022-08-31T18:29:44.221Z,17.80
2022-08-31T18:32:11.522Z,17.80
2022-08-31T18:34:43.688Z,17.80
2022-08-31T18:37:12.822Z,17.80
2022-08-31T18:40:09.811Z,17.80
2022-08-31T18:42:56.838Z,17.70
2022-08-31T18:45:24.453Z,17.80
2022-08-31T18:50:45.593Z,17.80
2022-08-31T18:53:15.104Z,17.70
2022-08-31T18:55:43.320Z,17.60
2022-08-31T18:58:10.473Z,17.50
2022-08-31T19:00:38.083Z,17.50
2022-08-31T19:03:05.869Z,17.30
2022-08-31T19:05:32.999Z,17.30
2022-08-31T19:08:00.332Z,17.20
2022-08-31T19:10:27.863Z,17.20
2022-08-31T19:12:55.751Z,17.20
2022-08-31T19:15:25.652Z,17.20
2022-08-31T19:18:02.604Z,17.10
2022-08-31T19:20:30.172Z,17.10
2022-08-31T19:22:57.468Z,17.00
2022-08-31T19:25:24.558Z,16.90
2022-08-31T19:27:52.032Z,16.90
2022-08-31T19:30:24.437Z,16.90
2022-08-31T19:32:53.674Z,16.80
2022-08-31T19:35:20.532Z,16.80
2022-08-31T19:37:51.738Z,16.70
2022-08-31T19:40:18.927Z,16.70
2022-08-31T19:45:45.065Z,16.50
2022-08-31T19:48:12.625Z,16.50
2022-08-31T19:50:42.097Z,16.40
2022-08-31T19:53:13.454Z,16.40
2022-08-31T19:55:51.194Z,16.30
2022-08-31T19:58:19.804Z,16.30
2022-08-31T20:00:47.955Z,16.20
2022-08-31T20:03:15.873Z,16.10
2022-08-31T20:05:43.595Z,16.10
2022-08-31T20:08:12.260Z,16.00
2022-08-31T20:10:44.273Z,15.90
2022-08-31T20:13:12.687Z,15.90
2022-08-31T20:15:44.778Z,15.80
2022-08-31T20:18:12.656Z,15.80
2022-08-31T20:20:45.602Z,15.70
2022-08-31T20:23:16.664Z,15.60
2022-08-31T20:25:49.270Z,15.50
2022-08-31T20:28:17.567Z,15.40
2022-08-31T20:30:45.259Z,15.30
2022-08-31T20:33:12.315Z,15.20
2022-08-31T20:35:47.647Z,15.10
2022-08-31T20:38:17.249Z,15.10
2022-08-31T20:40:47.049Z,15.00
2022-08-31T20:43:14.623Z,14.90
2022-08-31T20:45:42.420Z,14.90
2022-08-31T20:48:28.291Z,14.80
2022-08-31T20:50:56.079Z,14.80
2022-08-31T20:53:25.037Z,14.70
2022-08-31T20:56:14.891Z,14.70
2022-08-31T20:58:45.892Z,14.60
2022-08-31T21:01:14.246Z,14.50
2022-08-31T21:03:41.498Z,14.40
2022-08-31T21:06:11.715Z,14.40
2022-08-31T21:08:42.506Z,14.40
2022-08-31T21:11:24.657Z,14.40
2022-08-31T21:13:52.987Z,14.30
2022-08-31T21:16:20.909Z,14.20
2022-08-31T21:18:49.332Z,14.20
2022-08-31T21:21:17.429Z,14.20
2022-08-31T21:23:45.667Z,14.10
2022-08-31T21:26:21.587Z,14.10
2022-08-31T21:28:53.242Z,14.10
2022-08-31T21:31:29.226Z,14.10
2022-08-31T21:34:01.873Z,14.10
2022-08-31T21:36:32.941Z,14.00
2022-08-31T21:39:00.434Z,13.90
2022-08-31T21:41:28.847Z,13.90
2022-08-31T21:43:56.942Z,13.90
2022-08-31T21:46:26.930Z,13.90
2022-08-31T21:48:56.080Z,13.80
2022-08-31T21:51:27.329Z,13.80
2022-08-31T21:53:59.999Z,13.70
2022-08-31T21:56:29.503Z,13.70
2022-08-31T21:58:57.633Z,13.70
2022-08-31T22:01:26.824Z,13.60
2022-08-31T22:03:59.254Z,13.60
2022-08-31T22:06:30.863Z,13.50
2022-08-31T22:09:09.945Z,13.50
2022-08-31T22:11:40.123Z,13.40
2022-08-31T22:14:10.153Z,13.40
2022-08-31T22:16:39.188Z,13.40
2022-08-31T22:19:13.252Z,13.30
2022-08-31T22:21:46.318Z,13.30
2022-08-31T22:24:27.059Z,13.30
2022-08-31T22:26:56.342Z,13.30
2022-08-31T22:29:26.155Z,13.20
2022-08-31T22:31:57.327Z,13.20
2022-08-31T22:34:24.498Z,13.20
2022-08-31T22:36:52.211Z,13.10
2022-08-31T22:39:22.473Z,13.10
2022-08-31T22:41:49.557Z,13.10
2022-08-31T22:44:20.628Z,13.10
2022-08-31T22:46:48.040Z,13.20
2022-08-31T22:49:15.417Z,13.30
2022-08-31T22:51:48.294Z,13.40
2022-08-31T22:54:17.433Z,13.40
2022-08-31T22:56:44.418Z,13.50
2022-08-31T22:59:15.228Z,13.40
2022-08-31T23:01:46.543Z,13.40
2022-08-31T23:04:20.400Z,13.40
2022-08-31T23:06:50.213Z,13.50
2022-08-31T23:09:23.495Z,13.60
2022-08-31T23:11:51.678Z,13.60
2022-08-31T23:14:21.124Z,13.60
2022-08-31T23:16:58.928Z,13.70
2022-08-31T23:19:30.593Z,13.80
2022-08-31T23:21:58.221Z,13.80
2022-08-31T23:24:59.790Z,13.90
2022-08-31T23:27:26.869Z,13.90
2022-08-31T23:29:56.714Z,14.00
2022-08-31T23:32:27.744Z,14.00
2022-08-31T23:34:58.277Z,14.00
2022-08-31T23:37:26.491Z,14.00
2022-08-31T23:39:54.358Z,14.00
2022-08-31T23:42:23.344Z,14.00
2022-08-31T23:44:50.410Z,14.00
2022-08-31T23:47:30.080Z,14.10
2022-08-31T23:49:59.072Z,14.10
2022-08-31T23:52:28.379Z,14.20
2022-08-31T23:54:58.112Z,14.20
2022-08-31T23:57:32.163Z,14.20
